Time;durP1;ratioP1;P1;durP2;ratioP2;P2;SDS_P1;SDS_P2;PMS_P1;PMS_P2;Temp;Humidity;BMP_temperature;BMP_pressure;BME280_temperature;BME280_humidity;BME280_pressure;Samples;Min_cycle;Max_cycle;Signal;HPM_P1;HPM_P2
2021/03/09 00:01:04;;;;;;;22.05;11.75;;;102.80;1689.60;;;;;;5070523;28;20072;-66
2021/03/09 00:03:29;;;;;;;16.20;10.80;;;103.00;1664.00;;;;;;5086014;28;20020;-65
2021/03/09 00:05:55;;;;;;;17.27;11.10;;;103.10;1664.00;;;;;;5085096;28;20506;-66
2021/03/09 00:08:21;;;;;;;18.13;11.15;;;103.00;1664.00;;;;;;5083887;28;20035;-66
2021/03/09 00:10:46;;;;;;;16.65;10.48;;;102.90;1689.60;;;;;;5086170;28;20020;-66
2021/03/09 00:13:12;;;;;;;19.98;11.63;;;103.00;1689.60;;;;;;5084671;28;20100;-66
2021/03/09 00:15:38;;;;;;;19.95;11.57;;;103.00;1664.00;;;;;;5083790;28;20025;-66
2021/03/09 00:18:03;;;;;;;18.63;10.95;;;102.90;1689.60;;;;;;5084123;28;20044;-78
2021/03/09 00:20:29;;;;;;;19.20;11.57;;;103.00;1689.60;;;;;;5086482;28;20035;-76
2021/03/09 00:22:55;;;;;;;16.90;11.77;;;103.10;1664.00;;;;;;5086308;28;20028;-77
2021/03/09 00:25:20;;;;;;;21.73;11.65;;;103.10;1664.00;;;;;;5088856;28;20074;-78
2021/03/09 00:27:46;;;;;;;22.92;11.05;;;103.20;1664.00;;;;;;5096297;28;20402;-76
2021/03/09 00:30:12;;;;;;;21.63;12.07;;;103.10;1689.60;;;;;;5094727;28;20458;-76
2021/03/09 00:32:38;;;;;;;24.85;12.93;;;103.00;1664.00;;;;;;5095726;28;20478;-72
2021/03/09 00:35:04;;;;;;;19.88;11.98;;;103.00;1689.60;;;;;;5095062;28;20035;-63
2021/03/09 00:37:30;;;;;;;20.08;10.98;;;103.00;1689.60;;;;;;5095110;28;20460;-75
2021/03/09 00:39:56;;;;;;;21.92;12.43;;;103.00;1689.60;;;;;;5095072;28;20023;-77
2021/03/09 00:42:21;;;;;;;19.60;10.82;;;103.00;1689.60;;;;;;5095889;28;20028;-77
2021/03/09 00:44:47;;;;;;;21.88;11.57;;;103.00;1689.60;;;;;;5094794;28;20489;-76
2021/03/09 00:47:13;;;;;;;20.08;12.07;;;103.00;1689.60;;;;;;5094823;28;20028;-75
2021/03/09 00:49:38;;;;;;;21.90;11.35;;;102.80;1715.20;;;;;;5094730;28;20035;-77
2021/03/09 00:52:04;;;;;;;18.35;11.38;;;102.90;1715.20;;;;;;5095344;28;20028;-77
2021/03/09 00:54:30;;;;;;;18.90;11.25;;;102.70;1740.80;;;;;;5094906;28;20048;-73
2021/03/09 00:56:56;;;;;;;21.65;12.55;;;102.70;1740.80;;;;;;5095331;28;20040;-77
2021/03/09 00:59:21;;;;;;;20.52;12.57;;;102.60;1766.40;;;;;;5095015;28;20032;-76
2021/03/09 01:01:47;;;;;;;20.63;12.30;;;102.50;1766.40;;;;;;5095038;28;20030;-75
2021/03/09 01:04:13;;;;;;;19.40;12.80;;;102.60;1766.40;;;;;;5094827;28;20055;-76
2021/03/09 01:06:38;;;;;;;20.20;11.88;;;102.80;1740.80;;;;;;5094953;28;20028;-72
2021/03/09 01:09:04;;;;;;;24.48;13.00;;;102.80;1740.80;;;;;;5095166;28;20020;-77
2021/03/09 01:11:30;;;;;;;20.23;12.85;;;103.00;1715.20;;;;;;5095033;28;20488;-78
2021/03/09 01:13:56;;;;;;;22.73;13.73;;;102.80;1740.80;;;;;;5094821;28;20078;-77
2021/03/09 01:16:22;;;;;;;25.60;14.73;;;102.80;1740.80;;;;;;5094752;28;20093;-77
2021/03/09 01:18:47;;;;;;;23.85;13.95;;;102.90;1740.80;;;;;;5095303;28;20506;-77
2021/03/09 01:21:13;;;;;;;23.92;13.35;;;102.90;1740.80;;;;;;5095123;28;20366;-76
2021/03/09 01:23:39;;;;;;;26.48;15.57;;;102.90;1740.80;;;;;;5095094;28;20647;-70
2021/03/09 01:26:04;;;;;;;26.98;15.90;;;102.90;1766.40;;;;;;5094697;28;20067;-77
2021/03/09 01:28:30;;;;;;;28.23;15.52;;;102.80;1766.40;;;;;;5095158;28;20509;-76
2021/03/09 01:30:56;;;;;;;29.20;15.43;;;102.80;1766.40;;;;;;5094147;28;20039;-77
2021/03/09 01:33:22;;;;;;;29.33;16.23;;;102.70;1766.40;;;;;;5094078;28;20381;-77
2021/03/09 01:35:48;;;;;;;27.77;14.23;;;102.70;1766.40;;;;;;5094355;28;20025;-77
2021/03/09 01:38:14;;;;;;;31.73;15.45;;;102.70;1766.40;;;;;;5086324;28;20032;-74
2021/03/09 01:40:41;;;;;;;30.52;16.27;;;102.70;1766.40;;;;;;5087077;28;20016;-74
2021/03/09 01:43:06;;;;;;;27.38;15.73;;;102.60;1792.00;;;;;;5093729;28;20481;-75
2021/03/09 01:45:33;;;;;;;27.38;15.82;;;102.50;1792.00;;;;;;5093839;28;20135;-78
2021/03/09 01:48:02;;;;;;;28.65;15.93;;;102.50;1792.00;;;;;;5093810;28;20022;-75
2021/03/09 01:50:29;;;;;;;25.33;14.98;;;102.40;1792.00;;;;;;5094130;28;20042;-71
2021/03/09 01:52:55;;;;;;;29.90;17.05;;;102.40;1792.00;;;;;;5093900;28;20028;-75
2021/03/09 01:55:22;;;;;;;25.17;14.43;;;102.40;1792.00;;;;;;5093938;28;20134;-75
2021/03/09 01:57:49;;;;;;;26.25;14.10;;;102.40;1792.00;;;;;;5093851;28;20093;-75
2021/03/09 02:00:15;;;;;;;29.38;16.75;;;102.40;1817.60;;;;;;5093808;28;20016;-75
2021/03/09 02:02:41;;;;;;;30.10;17.00;;;77.70;1817.60;;;;;;5094260;28;20031;-74
2021/03/09 02:05:09;;;;;;;32.33;17.10;;;77.70;1817.60;;;;;;5093190;28;20057;-74
2021/03/09 02:07:35;;;;;;;30.15;16.48;;;77.70;1817.60;;;;;;5094014;28;20623;-75
2021/03/09 02:10:03;;;;;;;32.33;16.85;;;102.40;1817.60;;;;;;5093887;28;20024;-72
2021/03/09 02:12:50;;;;;;;28.80;16.33;;;102.40;1817.60;;;;;;5094392;28;20066;-75
2021/03/09 02:15:37;;;;;;;30.05;16.58;;;77.70;1843.20;;;;;;5093899;28;20020;-70
2021/03/09 02:18:15;;;;;;;32.13;17.05;;;77.70;1843.20;;;;;;5093416;28;20043;-76
2021/03/09 02:21:02;;;;;;;31.40;17.55;;;77.60;1843.20;;;;;;5074990;28;20036;-76
2021/03/09 02:23:52;;;;;;;29.95;17.35;;;77.60;1868.80;;;;;;5095028;28;20027;-74
2021/03/09 02:26:38;;;;;;;32.67;17.02;;;77.50;1894.40;;;;;;5078152;28;20032;-75
2021/03/09 02:29:28;;;;;;;35.72;19.35;;;77.40;1920.00;;;;;;5093760;28;20027;-75
2021/03/09 02:31:56;;;;;;;33.95;18.73;;;77.40;1920.00;;;;;;5094156;28;20020;-75
2021/03/09 02:34:30;;;;;;;29.73;16.53;;;77.40;1920.00;;;;;;5094824;28;20024;-74
2021/03/09 02:37:01;;;;;;;32.72;17.50;;;77.30;1894.40;;;;;;5094167;28;20082;-74
2021/03/09 02:39:28;;;;;;;30.30;16.65;;;77.30;1920.00;;;;;;5093704;28;20032;-75
2021/03/09 02:42:00;;;;;;;37.03;17.70;;;77.30;1894.40;;;;;;5075205;28;20039;-74
2021/03/09 02:44:28;;;;;;;29.90;17.23;;;77.30;1894.40;;;;;;5093574;28;20107;-64
2021/03/09 02:46:56;;;;;;;36.80;17.95;;;77.10;1920.00;;;;;;5093416;28;20514;-72
2021/03/09 02:49:24;;;;;;;31.40;16.25;;;77.20;1920.00;;;;;;5092796;28;20134;-75
2021/03/09 02:51:50;;;;;;;28.05;16.40;;;77.10;1920.00;;;;;;5093523;28;20032;-75
2021/03/09 02:54:17;;;;;;;29.15;16.33;;;77.10;1920.00;;;;;;5092628;28;20059;-75
2021/03/09 02:56:44;;;;;;;33.70;17.08;;;77.10;1920.00;;;;;;5094750;28;20099;-74
2021/03/09 02:59:17;;;;;;;33.50;15.77;;;77.20;1920.00;;;;;;5094083;28;20382;-77
2021/03/09 03:01:45;;;;;;;29.70;15.57;;;77.20;1894.40;;;;;;5093335;28;20021;-74
2021/03/09 03:04:15;;;;;;;26.35;15.10;;;77.20;1920.00;;;;;;5075224;28;20389;-76
2021/03/09 03:06:43;;;;;;;27.02;15.07;;;77.20;1920.00;;;;;;5093324;28;20023;-74
2021/03/09 03:09:11;;;;;;;24.95;14.68;;;77.10;1920.00;;;;;;5093973;28;20377;-75
2021/03/09 03:11:40;;;;;;;26.75;15.23;;;77.00;1945.60;;;;;;5093934;28;20081;-72
2021/03/09 03:14:07;;;;;;;27.30;15.30;;;76.80;1971.20;;;;;;5094099;28;20020;-75
2021/03/09 03:16:37;;;;;;;30.55;16.60;;;76.90;1971.20;;;;;;5094136;28;20024;-72
2021/03/09 03:19:06;;;;;;;29.17;16.65;;;76.90;1971.20;;;;;;5094847;28;20036;-74
2021/03/09 03:21:33;;;;;;;;;;;52.10;1996.80;;;;;;5095761;28;20028;-74
2021/03/09 03:24:05;;;;;;;26.25;15.20;;;52.00;2022.40;;;;;;5095359;28;19960;-72
2021/03/09 03:26:33;;;;;;;27.10;16.15;;;52.10;1996.80;;;;;;5095420;28;20039;-73
2021/03/09 03:29:00;;;;;;;28.10;16.17;;;52.10;1996.80;;;;;;5095618;28;20020;-75
2021/03/09 03:31:27;;;;;;;26.65;15.57;;;52.10;2022.40;;;;;;5077963;28;20043;-69
2021/03/09 03:33:53;;;;;;;28.38;15.60;;;76.80;2022.40;;;;;;5088849;28;20078;-75
2021/03/09 03:36:19;;;;;;;32.28;16.77;;;76.80;2022.40;;;;;;5081746;28;20020;-76
2021/03/09 03:38:44;;;;;;;27.33;15.13;;;77.00;1996.80;;;;;;5092801;28;20460;-77
2021/03/09 03:41:11;;;;;;;32.22;16.48;;;76.90;2022.40;;;;;;5093293;28;20099;-71
2021/03/09 03:43:38;;;;;;;28.90;16.40;;;52.10;2048.00;;;;;;5091891;28;20093;-61
2021/03/09 03:46:05;;;;;;;27.13;14.93;;;76.80;2048.00;;;;;;5091571;28;20019;-69
2021/03/09 03:48:36;;;;;;;29.17;16.35;;;76.80;2048.00;;;;;;5091850;28;20024;-71
2021/03/09 03:51:06;;;;;;;27.83;15.70;;;52.10;2048.00;;;;;;5091621;28;20023;-67
2021/03/09 03:53:57;;;;;;;29.48;16.42;;;52.00;2073.60;;;;;;5091543;28;20044;-69
2021/03/09 03:57:01;;;;;;;26.15;15.38;;;52.10;2073.60;;;;;;5084545;28;20416;-70
2021/03/09 03:59:35;;;;;;;29.02;15.45;;;52.00;2073.60;;;;;;5091631;28;20085;-69
2021/03/09 04:02:06;;;;;;;28.52;16.92;;;51.90;2099.20;;;;;;5094992;28;20019;-73
2021/03/09 04:04:34;;;;;;;27.88;16.92;;;51.70;2099.20;;;;;;5095020;28;20031;-65
2021/03/09 04:07:01;;;;;;;32.80;17.85;;;51.80;2099.20;;;;;;5095188;28;20051;-70
2021/03/09 04:09:27;;;;;;;26.27;16.38;;;51.90;2099.20;;;;;;5094843;28;20039;-69
2021/03/09 04:11:56;;;;;;;25.48;16.40;;;51.70;2099.20;;;;;;5095459;28;20024;-70
2021/03/09 04:14:22;;;;;;;34.30;17.85;;;51.80;2099.20;;;;;;5094724;28;20024;-70
2021/03/09 04:16:51;;;;;;;29.67;17.10;;;51.60;2124.80;;;;;;5095181;28;20071;-69
2021/03/09 04:19:18;;;;;;;32.22;16.88;;;51.70;2124.80;;;;;;5094729;28;20028;-65
2021/03/09 04:21:45;;;;;;;33.13;17.73;;;51.50;2150.40;;;;;;5077844;28;20025;-69
2021/03/09 04:24:13;;;;;;;29.63;16.50;;;51.80;2099.20;;;;;;5094812;28;20028;-70
2021/03/09 04:26:41;;;;;;;30.25;16.75;;;51.70;2124.80;;;;;;5094816;28;20024;-70
2021/03/09 04:29:09;;;;;;;32.78;16.52;;;51.70;2124.80;;;;;;5095622;28;20509;-70
2021/03/09 04:31:40;;;;;;;29.13;16.70;;;51.90;2073.60;;;;;;5094865;28;20024;-70
2021/03/09 04:34:06;;;;;;;31.85;16.23;;;52.00;2048.00;;;;;;5094830;28;20031;-70
2021/03/09 04:36:33;;;;;;;28.65;17.33;;;52.00;2048.00;;;;;;5094259;28;20024;-71
2021/03/09 04:39:01;;;;;;;30.13;16.90;;;51.90;2073.60;;;;;;5094818;28;20031;-70
2021/03/09 04:41:27;;;;;;;26.65;15.38;;;51.90;2073.60;;;;;;5094559;28;20020;-70
2021/03/09 04:43:53;;;;;;;30.33;17.60;;;51.70;2099.20;;;;;;5094993;28;20020;-71
2021/03/09 04:46:21;;;;;;;31.83;17.63;;;51.60;2099.20;;;;;;5094788;28;20115;-71
2021/03/09 04:48:48;;;;;;;35.20;18.80;;;51.30;2150.40;;;;;;5094124;28;20496;-71
2021/03/09 04:51:16;;;;;;;29.25;17.58;;;51.40;2150.40;;;;;;5094486;28;20485;-71
2021/03/09 04:53:43;;;;;;;34.67;19.25;;;51.50;2150.40;;;;;;5075879;28;20079;-71
2021/03/09 04:56:09;;;;;;;28.05;16.70;;;51.40;2150.40;;;;;;5095108;28;20466;-70
2021/03/09 04:58:35;;;;;;;31.65;17.23;;;51.30;2176.00;;;;;;5076016;28;20444;-67
2021/03/09 05:01:02;;;;;;;30.38;17.80;;;51.30;2176.00;;;;;;5094883;28;20024;-71
2021/03/09 05:03:28;;;;;;;30.90;16.45;;;51.60;2150.40;;;;;;5094859;28;20508;-69
2021/03/09 05:05:54;;;;;;;35.35;18.10;;;51.40;2176.00;;;;;;5094455;28;20020;-70
2021/03/09 05:08:20;;;;;;;38.30;19.52;;;51.60;2150.40;;;;;;5094637;28;20473;-69
2021/03/09 05:10:46;;;;;;;33.35;17.60;;;51.50;2150.40;;;;;;5094516;28;20098;-70
2021/03/09 05:13:13;;;;;;;33.58;18.90;;;51.50;2150.40;;;;;;5093272;28;20051;-71
2021/03/09 05:15:39;;;;;;;33.28;18.35;;;51.50;2176.00;;;;;;5094339;28;20024;-70
2021/03/09 05:18:05;;;;;;;31.85;19.10;;;51.60;2150.40;;;;;;5094563;28;20442;-70
2021/03/09 05:20:30;;;;;;;29.55;17.33;;;51.50;2150.40;;;;;;5093942;28;20073;-68
2021/03/09 05:22:56;;;;;;;33.20;18.10;;;51.60;2150.40;;;;;;5094918;28;20027;-69
2021/03/09 05:25:22;;;;;;;35.72;18.40;;;51.80;2124.80;;;;;;5091956;28;20024;-70
2021/03/09 05:27:48;;;;;;;30.08;17.98;;;51.70;2124.80;;;;;;5093664;28;20539;-68
2021/03/09 05:30:16;;;;;;;35.95;18.63;;;52.00;2073.60;;;;;;5093619;28;20016;-70
2021/03/09 05:32:43;;;;;;;31.25;18.08;;;52.10;2048.00;;;;;;5093993;28;20370;-71
2021/03/09 05:35:09;;;;;;;30.08;17.33;;;52.00;2073.60;;;;;;5093618;28;20039;-69
2021/03/09 05:37:35;;;;;;;31.58;18.52;;;76.80;2048.00;;;;;;5093094;28;20110;-70
2021/03/09 05:40:01;;;;;;;34.30;18.17;;;76.80;2022.40;;;;;;5093458;28;20107;-66
2021/03/09 05:42:27;;;;;;;30.90;17.98;;;76.80;2048.00;;;;;;5093049;28;20115;-70
2021/03/09 05:44:53;;;;;;;29.35;17.38;;;76.90;2022.40;;;;;;5093265;28;20099;-70
2021/03/09 05:47:19;;;;;;;30.00;16.75;;;76.90;2022.40;;;;;;5095070;28;20074;-68
2021/03/09 05:49:48;;;;;;;34.30;17.05;;;76.90;2022.40;;;;;;5097670;28;20099;-70
2021/03/09 05:52:17;;;;;;;30.60;17.42;;;77.10;1996.80;;;;;;5096108;28;20122;-69
2021/03/09 05:54:43;;;;;;;28.40;18.23;;;77.20;1971.20;;;;;;5094901;28;20051;-70
2021/03/09 05:57:08;;;;;;;29.08;17.48;;;77.40;1945.60;;;;;;5095531;28;20110;-70
2021/03/09 05:59:34;;;;;;;26.00;14.60;;;77.50;1920.00;;;;;;5075086;28;20221;-69
2021/03/09 06:02:00;;;;;;;28.00;15.45;;;77.10;1894.40;;;;;;5093095;28;20417;-70
2021/03/09 06:04:26;;;;;;;30.80;15.90;;;77.30;1920.00;;;;;;5092352;28;20058;-70
2021/03/09 06:06:52;;;;;;;29.77;15.85;;;77.50;1894.40;;;;;;5093053;28;20016;-70
2021/03/09 06:09:33;;;;;;;27.83;15.57;;;77.60;1868.80;;;;;;5092819;28;20028;-74
2021/03/09 06:12:22;;;;;;;25.80;14.95;;;77.60;1868.80;;;;;;5093638;28;20069;-76
2021/03/09 06:15:00;;;;;;;25.20;15.48;;;102.40;1843.20;;;;;;5089373;28;20022;-78
2021/03/09 06:17:27;;;;;;;28.55;15.88;;;102.40;1817.60;;;;;;5093462;28;20036;-75
2021/03/09 06:19:53;;;;;;;26.92;15.23;;;102.60;1792.00;;;;;;5093580;28;20031;-77
2021/03/09 06:22:20;;;;;;;30.83;18.40;;;102.50;1792.00;;;;;;5092768;28;20032;-77
2021/03/09 06:24:47;;;;;;;28.27;17.33;;;102.60;1792.00;;;;;;5092993;28;20017;-74
2021/03/09 06:27:30;;;;;;;34.58;17.40;;;102.60;1792.00;;;;;;5091680;28;20050;-74
2021/03/09 06:29:57;;;;;;;36.97;19.08;;;102.70;1792.00;;;;;;5091451;28;20039;-70
2021/03/09 06:32:24;;;;;;;33.65;18.15;;;102.60;1766.40;;;;;;5092982;28;20029;-74
2021/03/09 06:34:54;;;;;;;31.88;17.17;;;102.60;1766.40;;;;;;5092519;28;20076;-75
2021/03/09 06:37:27;;;;;;;38.50;19.15;;;102.70;1766.40;;;;;;5092739;28;20020;-70
2021/03/09 06:39:54;;;;;;;45.58;22.50;;;102.80;1740.80;;;;;;5092447;28;20016;-74
2021/03/09 06:42:20;;;;;;;35.50;21.13;;;103.20;1689.60;;;;;;5092921;28;20477;-72
2021/03/09 06:45:00;;;;;;;43.38;21.52;;;103.30;1664.00;;;;;;5095555;28;20024;-77
2021/03/09 06:47:45;;;;;;;44.72;21.35;;;103.30;1689.60;;;;;;5095111;28;20543;-76
2021/03/09 06:50:33;;;;;;;37.13;21.42;;;128.00;1689.60;;;;;;5074446;28;20390;-74
2021/03/09 06:53:01;;;;;;;36.75;20.15;;;128.00;1715.20;;;;;;5092419;28;20467;-73
2021/03/09 06:55:29;;;;;;;40.57;20.70;;;128.00;1689.60;;;;;;5092291;28;20108;-74
2021/03/09 06:58:04;;;;;;;38.65;19.88;;;128.10;1715.20;;;;;;5092407;28;20025;-74
2021/03/09 07:00:30;;;;;;;36.53;19.55;;;128.00;1689.60;;;;;;5092510;28;20024;-73
2021/03/09 07:02:56;;;;;;;31.00;18.88;;;128.20;1664.00;;;;;;5092024;28;20031;-73
2021/03/09 07:05:21;;;;;;;35.08;17.48;;;128.40;1638.40;;;;;;5092960;28;20030;-74
2021/03/09 07:07:47;;;;;;;29.95;16.63;;;128.30;1638.40;;;;;;5092683;28;20123;-74
2021/03/09 07:10:15;;;;;;;30.33;17.05;;;128.10;1638.40;;;;;;5094673;28;20474;-75
2021/03/09 07:12:43;;;;;;;32.17;18.08;;;128.20;1612.80;;;;;;5091350;28;20024;-75
2021/03/09 07:15:17;;;;;;;27.40;16.30;;;128.40;1612.80;;;;;;5095005;28;20028;-73
2021/03/09 07:17:43;;;;;;;34.10;18.23;;;128.30;1587.20;;;;;;5092835;28;20281;-69
2021/03/09 07:20:12;;;;;;;33.65;17.50;;;128.60;1612.80;;;;;;5092211;28;20023;-72
2021/03/09 07:22:38;;;;;;;25.80;16.17;;;128.70;1612.80;;;;;;5092987;28;20530;-73
2021/03/09 07:25:08;;;;;;;31.00;18.27;;;153.60;1561.60;;;;;;5092131;28;20052;-70
2021/03/09 07:28:03;;;;;;;25.13;15.52;;;154.00;1536.00;;;;;;5093013;28;20081;-71
2021/03/09 07:30:37;;;;;;;22.13;14.38;;;;;;;;;;5092557;28;20122;-71
2021/03/09 07:33:03;;;;;;;21.10;14.05;;;;;;;;;;5092163;28;20069;-69
2021/03/09 07:35:29;;;;;;;22.88;13.60;;;;;;;;;;5093318;28;20031;-71
2021/03/09 07:37:56;;;;;;;23.67;13.85;;;;;;;;;;5094420;28;20059;-72
2021/03/09 07:40:24;;;;;;;23.42;14.13;;;;;;;;;;5095468;28;20378;-72
2021/03/09 07:42:50;;;;;;;25.23;14.73;;;;;;;;;;5096415;28;20028;-71
2021/03/09 07:45:20;;;;;;;26.95;14.60;;;;;;;;;;5097027;28;20048;-76
2021/03/09 07:47:53;;;;;;;27.27;15.60;;;179.20;1459.20;;;;;;5097339;28;20489;-76
2021/03/09 07:50:22;;;;;;;30.13;15.63;;;179.40;1408.00;;;;;;5079575;28;20386;-74
2021/03/09 07:53:03;;;;;;;26.13;15.77;;;179.70;1382.40;;;;;;5096500;28;20382;-77
2021/03/09 07:55:30;;;;;;;26.27;16.48;;;179.80;1382.40;;;;;;5096968;28;20046;-72
2021/03/09 07:58:15;;;;;;;26.40;15.85;;;179.70;1408.00;;;;;;5096628;28;20028;-73
2021/03/09 08:00:52;;;;;;;28.42;16.45;;;179.80;1408.00;;;;;;5096581;28;20020;-74
2021/03/09 08:03:22;;;;;;;28.73;16.30;;;179.80;1408.00;;;;;;5096383;28;20531;-72
2021/03/09 08:05:53;;;;;;;27.23;16.45;;;180.10;1356.80;;;;;;5095897;28;20035;-75
2021/03/09 08:08:40;;;;;;;26.45;15.40;;;205.00;1331.20;;;;;;5096544;28;20028;-76
2021/03/09 08:11:32;;;;;;;32.08;17.08;;;180.00;1356.80;;;;;;5097026;28;20024;-75
2021/03/09 08:14:04;;;;;;;36.53;17.20;;;204.90;1331.20;;;;;;5067107;28;20041;-72
2021/03/09 08:16:34;;;;;;;33.35;16.60;;;204.80;1356.80;;;;;;5075308;28;20059;-74
2021/03/09 08:19:05;;;;;;;25.60;15.25;;;204.90;1331.20;;;;;;5075567;28;20537;-85
2021/03/09 08:21:56;;;;;;;29.58;16.35;;;205.10;1331.20;;;;;;5074980;28;20108;-61
2021/03/09 08:24:40;;;;;;;27.27;17.13;;;205.00;1331.20;;;;;;5080509;28;20068;-62
2021/03/09 08:27:28;;;;;;;31.42;18.20;;;205.00;1331.20;;;;;;5087251;28;20028;-64
2021/03/09 08:29:55;;;;;;;;;;;205.10;1305.60;;;;;;5094650;28;20370;-66
2021/03/09 08:32:23;;;;;;;26.38;15.65;;;204.90;1331.20;;;;;;5094694;28;19957;-66
2021/03/09 08:34:50;;;;;;;25.92;15.45;;;205.00;1305.60;;;;;;5094990;28;20061;-67
2021/03/09 08:37:32;;;;;;;27.42;16.52;;;205.00;1305.60;;;;;;5080556;28;20125;-66
2021/03/09 08:40:15;;;;;;;24.85;15.00;;;205.20;1305.60;;;;;;5094647;28;20024;-68
2021/03/09 08:43:02;;;;;;;20.80;13.88;;;205.50;1280.00;;;;;;5095257;28;20047;-66
2021/03/09 08:45:37;;;;;;;20.55;14.80;;;205.70;1228.80;;;;;;5095992;28;20020;-67
2021/03/09 08:48:04;;;;;;;24.00;14.90;;;205.70;1254.40;;;;;;5094768;28;20020;-63
2021/03/09 08:50:46;;;;;;;23.63;17.30;;;230.80;1203.20;;;;;;5094859;28;20032;-67
2021/03/09 08:53:31;;;;;;;24.65;18.23;;;230.70;1203.20;;;;;;5094752;28;20047;-67
2021/03/09 08:55:58;;;;;;;28.92;16.98;;;231.00;1203.20;;;;;;5094651;28;20382;-66
2021/03/09 08:58:25;;;;;;;23.00;15.27;;;231.10;1203.20;;;;;;5094703;28;20433;-66
2021/03/09 09:00:51;;;;;;;26.05;16.33;;;256.00;1152.00;;;;;;5094259;28;20024;-66
2021/03/09 09:03:33;;;;;;;22.15;14.77;;;256.40;1126.40;;;;;;5094662;28;20054;-66
2021/03/09 09:05:59;;;;;;;26.67;15.20;;;256.80;1100.80;;;;;;5093999;28;20020;-66
2021/03/09 09:08:25;;;;;;;25.30;16.10;;;256.90;1075.20;;;;;;5094897;28;20034;-66
2021/03/09 09:10:51;;;;;;;21.23;13.95;;;256.80;1075.20;;;;;;5094446;28;20413;-68
2021/03/09 09:13:26;;;;;;;24.65;14.82;;;281.60;1100.80;;;;;;5094113;28;20073;-66
2021/03/09 09:15:52;;;;;;;18.98;14.02;;;256.80;1100.80;;;;;;5094465;28;20047;-68
2021/03/09 09:18:21;;;;;;;26.00;14.52;;;256.80;1075.20;;;;;;5094260;28;20087;-68
2021/03/09 09:20:47;;;;;;;20.27;13.70;;;;;;;;;;5094482;28;20016;-66
2021/03/09 09:23:20;;;;;;;19.92;13.77;;;;;;;;;;5094064;28;20463;-68
2021/03/09 09:25:47;;;;;;;21.42;15.63;;;;;;;;;;5094453;28;20027;-68
2021/03/09 09:28:32;;;;;;;21.92;14.60;;;;;;;;;;5094286;28;20031;-68
2021/03/09 09:30:59;;;;;;;30.75;16.42;;;;;;;;;;5093995;28;20531;-66
2021/03/09 09:33:28;;;;;;;36.13;17.70;;;282.00;1049.60;;;;;;5094086;28;20489;-66
2021/03/09 09:35:54;;;;;;;26.55;15.43;;;281.90;1049.60;;;;;;5092515;28;20024;-68
2021/03/09 09:38:20;;;;;;;25.35;14.73;;;281.90;1049.60;;;;;;5093510;28;20043;-69
2021/03/09 09:40:52;;;;;;;21.33;13.88;;;282.10;1049.60;;;;;;5093302;28;20466;-68
2021/03/09 09:43:20;;;;;;;20.23;13.55;;;281.90;1024.00;;;;;;5092318;28;20032;-69
2021/03/09 09:45:52;;;;;;;23.80;13.52;;;281.60;1075.20;;;;;;5093276;28;20034;-67
2021/03/09 09:48:20;;;;;;;24.88;15.00;;;256.90;998.40;;;;;;5093398;28;20027;-64
2021/03/09 09:50:51;;;;;;;21.83;14.23;;;256.70;1049.60;;;;;;5093122;28;20129;-65
2021/03/09 09:53:38;;;;;;;21.55;14.52;;;256.70;1049.60;;;;;;5092861;28;20032;-64
2021/03/09 09:56:06;;;;;;;22.00;14.20;;;256.50;1075.20;;;;;;5074575;28;20017;-62
2021/03/09 09:58:49;;;;;;;23.60;14.98;;;256.80;1049.60;;;;;;5092636;28;20028;-63
2021/03/09 10:01:20;;;;;;;38.08;16.15;;;256.80;1049.60;;;;;;5092589;28;20024;-63
2021/03/09 10:03:54;;;;;;;22.42;14.35;;;281.60;1049.60;;;;;;5092871;28;20020;-63
2021/03/09 10:06:41;;;;;;;22.83;15.15;;;281.60;1049.60;;;;;;5092700;28;20020;-64
2021/03/09 10:09:09;;;;;;;25.00;15.80;;;256.40;1049.60;;;;;;5091580;28;20059;-64
2021/03/09 10:11:45;;;;;;;24.05;14.68;;;231.30;1100.80;;;;;;5073662;28;20425;-63
2021/03/09 10:14:11;;;;;;;21.85;15.10;;;256.30;1075.20;;;;;;5091940;28;20035;-63
2021/03/09 10:16:41;;;;;;;23.15;15.07;;;256.60;1075.20;;;;;;5092045;28;20421;-63
2021/03/09 10:19:09;;;;;;;20.65;13.65;;;281.80;1049.60;;;;;;5092309;28;20016;-64
2021/03/09 10:21:35;;;;;;;33.30;14.95;;;281.70;1049.60;;;;;;5092100;28;20070;-64
2021/03/09 10:24:03;;;;;;;26.17;14.23;;;281.90;1049.60;;;;;;5092790;28;20436;-63
2021/03/09 10:26:32;;;;;;;20.13;14.10;;;282.00;1024.00;;;;;;5092650;28;20024;-62
2021/03/09 10:29:11;;;;;;;;;;;282.30;998.40;;;;;;5092647;28;20027;-63
2021/03/09 10:31:39;;;;;;;25.13;15.00;;;307.20;998.40;;;;;;5092674;28;20421;-63
2021/03/09 10:34:05;;;;;;;22.42;15.32;;;307.30;998.40;;;;;;5073745;28;20028;-64
2021/03/09 10:36:50;;;;;;;20.08;14.70;;;307.40;998.40;;;;;;5073977;28;20094;-64
2021/03/09 10:39:16;;;;;;;21.83;14.75;;;307.20;998.40;;;;;;5090633;28;20099;-63
2021/03/09 10:41:42;;;;;;;20.63;13.95;;;307.40;972.80;;;;;;5091698;28;20020;-63
2021/03/09 10:44:35;;;;;;;21.80;14.40;;;307.60;972.80;;;;;;5091662;28;20024;-62
2021/03/09 10:47:04;;;;;;;22.52;14.32;;;307.60;972.80;;;;;;5091995;28;20114;-64
2021/03/09 10:49:31;;;;;;;44.28;16.38;;;307.50;972.80;;;;;;5091727;28;20038;-64
2021/03/09 10:52:01;;;;;;;25.92;14.73;;;307.80;947.20;;;;;;5091579;28;20028;-64
2021/03/09 10:54:28;;;;;;;23.98;15.52;;;332.80;972.80;;;;;;5090221;28;20051;-65
2021/03/09 10:56:54;;;;;;;25.48;15.45;;;332.80;972.80;;;;;;5091831;28;20095;-64
2021/03/09 10:59:20;;;;;;;22.00;14.20;;;333.10;947.20;;;;;;5088883;28;20147;-65
2021/03/09 11:01:45;;;;;;;20.20;13.35;;;333.30;921.60;;;;;;5083418;28;20083;-64
2021/03/09 11:04:12;;;;;;;19.38;13.60;;;332.90;921.60;;;;;;5084287;28;20029;-65
2021/03/09 11:06:37;;;;;;;17.52;13.00;;;308.10;896.00;;;;;;5078969;28;20025;-65
2021/03/09 11:09:04;;;;;;;21.38;13.98;;;308.10;921.60;;;;;;5083053;28;20094;-65
2021/03/09 11:11:29;;;;;;;32.50;14.60;;;308.00;896.00;;;;;;5087625;28;20028;-66
2021/03/09 11:13:55;;;;;;;29.85;13.93;;;333.10;921.60;;;;;;5082231;28;20021;-63
2021/03/09 11:16:21;;;;;;;29.13;14.60;;;333.30;921.60;;;;;;5086900;28;20540;-65
2021/03/09 11:18:46;;;;;;;19.75;12.65;;;333.30;896.00;;;;;;5085484;28;20054;-64
2021/03/09 11:21:12;;;;;;;21.13;13.90;;;333.20;921.60;;;;;;5090388;28;20020;-65
2021/03/09 11:23:39;;;;;;;20.10;13.68;;;333.20;870.40;;;;;;5095568;28;20024;-67
2021/03/09 11:26:06;;;;;;;20.80;13.35;;;333.30;896.00;;;;;;5095527;28;20012;-63
2021/03/09 11:28:35;;;;;;;25.60;14.70;;;333.50;844.80;;;;;;5096247;28;20084;-65
2021/03/09 11:31:01;;;;;;;23.27;13.90;;;333.60;870.40;;;;;;5095557;28;20020;-65
2021/03/09 11:33:27;;;;;;;18.67;12.73;;;333.70;870.40;;;;;;5096502;28;20473;-68
2021/03/09 11:35:53;;;;;;;19.80;13.65;;;333.70;870.40;;;;;;5095493;28;20062;-66
2021/03/09 11:38:20;;;;;;;19.40;13.30;;;358.60;844.80;;;;;;5095494;28;20078;-63
2021/03/09 11:40:46;;;;;;;19.75;13.32;;;358.70;819.20;;;;;;5095103;28;20066;-63
2021/03/09 11:43:12;;;;;;;20.75;12.75;;;358.70;793.60;;;;;;5095792;28;20486;-65
2021/03/09 11:45:38;;;;;;;36.78;13.43;;;358.70;819.20;;;;;;5095655;28;20104;-63
2021/03/09 11:48:04;;;;;;;22.60;12.45;;;359.00;793.60;;;;;;5095939;28;20035;-65
2021/03/09 11:50:29;;;;;;;19.13;11.55;;;358.80;793.60;;;;;;5093342;28;20043;-69
2021/03/09 11:52:55;;;;;;;18.80;12.30;;;358.80;793.60;;;;;;5094858;28;20031;-64
2021/03/09 11:55:21;;;;;;;17.27;11.32;;;358.70;793.60;;;;;;5093243;28;20459;-66
2021/03/09 11:57:46;;;;;;;17.10;11.27;;;358.90;819.20;;;;;;5095077;28;20134;-65
2021/03/09 12:00:13;;;;;;;16.95;11.02;;;359.10;793.60;;;;;;5095513;28;20055;-64
2021/03/09 12:02:38;;;;;;;17.40;12.20;;;358.90;793.60;;;;;;5094017;28;20448;-65
2021/03/09 12:05:05;;;;;;;34.83;13.27;;;359.10;768.00;;;;;;5092889;28;20033;-65
2021/03/09 12:07:31;;;;;;;21.48;12.57;;;384.00;768.00;;;;;;5093590;28;20360;-64
2021/03/09 12:09:57;;;;;;;16.98;10.85;;;384.00;768.00;;;;;;5092585;28;20031;-67
2021/03/09 12:12:22;;;;;;;15.98;11.50;;;384.40;742.40;;;;;;5094740;28;20444;-67
2021/03/09 12:14:48;;;;;;;14.40;11.00;;;384.30;742.40;;;;;;5093330;28;20028;-65
2021/03/09 12:17:14;;;;;;;15.82;11.15;;;384.10;742.40;;;;;;5093922;28;20032;-65
2021/03/09 12:19:39;;;;;;;17.27;11.35;;;384.30;716.80;;;;;;5075472;28;20036;-65